Time;durP1;ratioP1;P1;durP2;ratioP2;P2;SDS_P1;SDS_P2;PMS_P1;PMS_P2;Temp;Humidity;BMP_temperature;BMP_pressure;BME280_temperature;BME280_humidity;BME280_pressure;Samples;Min_cycle;Max_cycle;Signal;HPM_P1;HPM_P2
2023/10/07 00:01:24;;;;;;;6.87;3.27;;;;;;;9.21;60.91;100621.75;1784686;80;21469;-73
2023/10/07 00:03:56;;;;;;;7.47;3.75;;;;;;;9.22;60.92;100622.59;1784897;80;21043;-74
2023/10/07 00:06:29;;;;;;;6.20;2.83;;;;;;;9.23;60.91;100622.08;1784813;80;21078;-74
2023/10/07 00:08:58;;;;;;;6.12;2.87;;;;;;;9.22;60.91;100619.86;1784555;80;21085;-76
2023/10/07 00:11:32;;;;;;;6.97;3.40;;;;;;;9.23;60.93;100607.04;1784590;80;21046;-74
2023/10/07 00:14:02;;;;;;;7.83;3.17;;;;;;;9.23;60.89;100597.47;1784620;80;21069;-73
2023/10/07 00:16:31;;;;;;;5.87;3.00;;;;;;;9.26;60.86;100591.12;1784729;80;21069;-74
2023/10/07 00:19:00;;;;;;;10.35;3.62;;;;;;;9.27;60.78;100587.35;1784744;80;21061;-75
2023/10/07 00:24:16;;;;;;;6.03;3.08;;;;;;;9.27;60.71;100576.93;1784747;80;21034;-74
2023/10/07 00:26:47;;;;;;;6.47;3.12;;;;;;;9.25;60.65;100572.16;1784718;80;21085;-75
2023/10/07 00:29:18;;;;;;;9.60;3.12;;;;;;;9.25;60.66;100573.02;1784646;80;21699;-75
2023/10/07 00:31:50;;;;;;;5.05;2.70;;;;;;;9.25;60.65;100563.96;1784782;79;21434;-74
2023/10/07 00:34:25;;;;;;;8.35;2.85;;;;;;;9.23;60.68;100564.66;1784593;80;21013;-75
2023/10/07 00:36:47;;;;;;;7.62;3.10;;;;;;;9.20;60.73;100564.00;1783596;80;21007;-76
2023/10/07 00:39:23;;;;;;;7.08;2.72;;;;;;;9.18;60.79;100561.97;1784855;80;21085;-75
2023/10/07 00:41:57;;;;;;;5.55;2.83;;;;;;;9.16;60.84;100548.16;1784650;80;21483;-74
2023/10/07 00:44:23;;;;;;;7.12;3.12;;;;;;;9.15;60.90;100544.57;1784190;80;21034;-75
2023/10/07 00:52:29;;;;;;;7.50;2.95;;;;;;;9.20;60.87;100538.03;1784945;79;21014;-75
2023/10/07 01:02:57;;;;;;;8.63;3.00;;;;;;;9.16;61.00;100525.77;1784587;80;21074;-76
2023/10/07 01:05:26;;;;;;;5.72;3.22;;;;;;;9.19;61.04;100522.66;1784105;80;21466;-76
2023/10/07 01:07:53;;;;;;;7.42;2.72;;;;;;;9.23;61.04;100517.67;1784728;80;21044;-74
2023/10/07 01:10:26;;;;;;;6.78;3.15;;;;;;;9.23;61.05;100516.82;1784881;80;21034;-75
2023/10/07 01:12:59;;;;;;;5.22;2.58;;;;;;;9.21;61.14;100510.17;1784752;80;21313;-74
2023/10/07 01:15:29;;;;;;;7.28;3.10;;;;;;;9.23;61.17;100501.27;1784959;79;21025;-75
2023/10/07 01:18:03;;;;;;;8.78;2.90;;;;;;;9.21;61.23;100491.88;1784611;79;21034;-74
2023/10/07 01:20:37;;;;;;;7.65;2.83;;;;;;;9.18;61.30;100485.42;1784382;79;21042;-75
2023/10/07 01:23:03;;;;;;;6.95;3.02;;;;;;;9.17;61.42;100478.78;1783169;80;21462;-74
2023/10/07 01:25:35;;;;;;;6.47;3.30;;;;;;;9.17;61.51;100473.31;1784591;80;21049;-75
2023/10/07 01:28:04;;;;;;;7.62;3.42;;;;;;;9.18;61.58;100478.59;1784519;80;21101;-75
2023/10/07 01:30:35;;;;;;;7.53;3.45;;;;;;;9.13;61.71;100471.47;1784520;79;21030;-75
2023/10/07 01:35:38;;;;;;;5.90;3.25;;;;;;;9.08;62.10;100468.41;1784758;80;21030;-74
2023/10/07 01:38:07;;;;;;;8.18;3.00;;;;;;;9.07;62.24;100460.39;1784501;80;21069;-75
2023/10/07 01:43:20;;;;;;;7.55;3.30;;;;;;;9.08;62.56;100452.53;1784756;80;21105;-75
2023/10/07 01:45:49;;;;;;;9.20;3.47;;;;;;;9.08;62.66;100441.59;1784844;80;21061;-75
2023/10/07 01:48:18;;;;;;;5.75;2.85;;;;;;;9.10;62.75;100434.06;1784710;80;21086;-76
2023/10/07 01:50:47;;;;;;;7.75;3.60;;;;;;;9.08;62.83;100412.90;1784584;80;21563;-76
2023/10/07 01:53:16;;;;;;;6.72;3.17;;;;;;;9.07;62.94;100411.20;1784574;80;21085;-74
2023/10/07 01:55:45;;;;;;;6.87;3.35;;;;;;;9.06;63.07;100383.02;1784714;80;21050;-76
2023/10/07 01:58:15;;;;;;;8.58;3.70;;;;;;;9.09;63.16;100374.44;1784759;80;21085;-74
2023/10/07 02:00:46;;;;;;;14.35;4.00;;;;;;;9.11;63.22;100366.09;1786190;79;21135;-74
2023/10/07 02:03:17;;;;;;;7.90;3.08;;;;;;;9.13;63.33;100365.38;1788150;80;21097;-74
2023/10/07 02:05:51;;;;;;;8.78;3.60;;;;;;;9.17;63.40;100369.43;1788175;80;21085;-75
2023/10/07 02:08:24;;;;;;;7.05;3.08;;;;;;;9.22;63.56;100375.17;1788076;80;21088;-73
2023/10/07 02:10:57;;;;;;;6.10;2.70;;;;;;;9.26;63.68;100375.13;1788120;80;21007;-76
2023/10/07 02:13:27;;;;;;;8.35;3.30;;;;;;;9.28;63.80;100376.30;1788308;80;21344;-74
2023/10/07 02:15:57;;;;;;;6.85;3.40;;;;;;;9.32;63.91;100381.20;1788118;80;21551;-74
2023/10/07 02:18:29;;;;;;;7.33;3.37;;;;;;;9.37;64.09;100384.73;1788417;80;21053;-75
2023/10/07 02:21:07;;;;;;;6.90;3.15;;;;;;;9.39;64.08;100375.81;1788376;80;21038;-74
2023/10/07 02:23:37;;;;;;;6.10;3.33;;;;;;;9.41;64.15;100378.69;1788230;80;21472;-73
2023/10/07 02:26:14;;;;;;;8.35;3.72;;;;;;;9.38;64.33;100378.22;1788337;80;21030;-75
2023/10/07 02:28:38;;;;;;;9.15;3.22;;;;;;;9.33;64.54;100372.48;1787991;80;21012;-75
2023/10/07 02:31:27;;;;;;;6.62;3.58;;;;;;;9.27;64.78;100365.89;1788072;80;21678;-75
2023/10/07 02:33:43;;;;;;;10.08;3.12;;;;;;;9.24;65.04;100356.70;1782982;80;21094;-74
2023/10/07 02:37:11;;;;;;;9.05;3.37;;;;;;;9.22;65.20;100347.84;1788254;80;21030;-75
2023/10/07 02:38:44;;;;;;;8.10;3.20;;;;;;;9.23;65.37;100348.69;1769787;80;21050;-75
2023/10/07 02:41:17;;;;;;;8.95;3.58;;;;;;;9.25;65.52;100334.31;1788305;80;21029;-76
2023/10/07 02:43:49;;;;;;;8.35;3.22;;;;;;;9.28;65.65;100338.03;1788262;80;21061;-74
2023/10/07 02:46:34;;;;;;;6.05;3.25;;;;;;;9.33;65.78;100334.20;1788325;80;21507;-74
2023/10/07 02:49:09;;;;;;;6.62;2.87;;;;;;;9.34;65.93;100339.48;1788280;80;21050;-75
2023/10/07 02:51:56;;;;;;;7.20;3.20;;;;;;;9.36;66.02;100325.61;1787862;80;21030;-74
2023/10/07 02:54:20;;;;;;;9.03;3.37;;;;;;;9.37;66.17;100316.38;1785785;80;21015;-74
2023/10/07 02:56:55;;;;;;;6.92;3.52;;;;;;;9.41;66.21;100319.05;1788356;80;21026;-75
2023/10/07 02:59:35;;;;;;;6.53;3.12;;;;;;;9.45;66.23;100299.84;1788282;80;21490;-75
2023/10/07 03:05:04;;;;;;;11.28;3.30;;;;;;;9.51;66.37;100283.52;1784770;79;21520;-75
2023/10/07 03:07:29;;;;;;;8.85;2.95;;;;;;;9.58;66.43;100275.38;1784479;79;21065;-74
2023/10/07 03:12:49;;;;;;;8.48;3.02;;;;;;;9.65;66.60;100268.61;1784775;79;21077;-76
2023/10/07 03:15:28;;;;;;;9.18;3.58;;;;;;;9.71;66.62;100265.94;1784666;80;21050;-74
2023/10/07 03:17:52;;;;;;;10.50;3.65;;;;;;;9.74;66.65;100255.97;1783585;80;21451;-74
2023/10/07 03:28:36;;;;;;;6.83;3.45;;;;;;;9.84;66.74;100225.05;1784773;80;21049;-74
2023/10/07 03:31:12;;;;;;;10.78;3.37;;;;;;;9.88;66.78;100210.45;1784582;80;21789;-75
2023/10/07 03:33:45;;;;;;;7.17;3.42;;;;;;;9.90;66.79;100206.14;1784613;80;21026;-75
2023/10/07 03:38:45;;;;;;;7.90;3.50;;;;;;;9.96;66.92;100201.25;1784858;80;21248;-75
2023/10/07 03:41:17;;;;;;;6.65;3.35;;;;;;;10.01;66.92;100194.13;1784627;80;21061;-74
2023/10/07 03:43:45;;;;;;;10.75;3.77;;;;;;;10.05;66.94;100183.63;1784774;79;21465;-75
2023/10/07 03:46:17;;;;;;;9.60;3.40;;;;;;;10.09;66.96;100187.66;1784704;80;21041;-74
2023/10/07 03:48:53;;;;;;;9.40;3.65;;;;;;;10.11;67.01;100182.83;1784659;80;21457;-75
2023/10/07 03:51:17;;;;;;;10.93;3.87;;;;;;;10.13;66.98;100178.84;1783942;80;21069;-74
2023/10/07 03:53:45;;;;;;;6.30;3.58;;;;;;;10.15;66.92;100185.48;1784807;80;21093;-74
2023/10/07 03:56:14;;;;;;;7.60;3.50;;;;;;;10.17;66.92;100174.66;1784660;80;21434;-75
2023/10/07 03:58:43;;;;;;;9.95;3.92;;;;;;;10.21;66.85;100161.97;1784520;80;21085;-75
2023/10/07 04:01:16;;;;;;;6.70;3.50;;;;;;;10.24;66.80;100165.15;1784607;80;21547;-76
2023/10/07 04:03:51;;;;;;;7.58;3.65;;;;;;;10.27;66.74;100155.16;1784819;79;21088;-75
2023/10/07 04:06:20;;;;;;;7.62;3.45;;;;;;;10.28;66.65;100145.90;1784858;80;21510;-74
2023/10/07 04:08:53;;;;;;;7.12;3.42;;;;;;;10.27;66.70;100125.56;1784559;79;21073;-75
2023/10/07 04:11:26;;;;;;;10.80;3.95;;;;;;;10.29;66.70;100124.84;1784715;80;21026;-74
2023/10/07 04:13:55;;;;;;;13.83;4.37;;;;;;;10.32;66.66;100113.48;1784823;80;21070;-74
2023/10/07 04:16:25;;;;;;;9.23;4.10;;;;;;;10.34;66.57;100108.13;1784651;80;21029;-73
2023/10/07 04:21:42;;;;;;;;;;;;;;;10.36;66.43;100107.39;1787445;79;20986;-74
2023/10/07 04:24:12;;;;;;;8.58;3.75;;;;;;;10.36;66.27;100096.96;1784701;79;20189;-73
2023/10/07 04:26:51;;;;;;;10.10;3.55;;;;;;;10.35;66.19;100092.01;1784710;79;21505;-73
2023/10/07 04:29:16;;;;;;;9.80;3.20;;;;;;;10.37;66.03;100084.44;1783356;80;21470;-73
2023/10/07 04:31:51;;;;;;;6.55;2.87;;;;;;;10.38;65.89;100077.91;1784744;80;21453;-74
2023/10/07 04:34:23;;;;;;;10.72;3.40;;;;;;;10.43;65.82;100071.85;1784723;80;21041;-74
2023/10/07 04:42:23;;;;;;;10.05;3.15;;;;;;;10.55;65.72;100065.25;1784897;80;21454;-75
2023/10/07 04:47:34;;;;;;;6.90;3.00;;;;;;;10.58;65.42;100048.41;1784596;80;21041;-74
2023/10/07 04:52:28;;;;;;;8.38;3.67;;;;;;;10.60;65.29;100038.92;1784759;80;21069;-75
2023/10/07 04:54:58;;;;;;;8.90;3.45;;;;;;;10.62;65.25;100027.77;1784536;79;21085;-74
2023/10/07 04:57:56;;;;;;;6.53;3.60;;;;;;;10.63;65.17;100026.71;1784549;80;21504;-75
2023/10/07 05:00:36;;;;;;;9.75;4.28;;;;;;;10.64;65.13;100017.44;1782816;79;21026;-75
2023/10/07 05:03:11;;;;;;;5.95;3.20;;;;;;;10.65;65.07;100002.16;1796150;80;21116;-76
2023/10/07 05:05:35;;;;;;;6.12;3.45;;;;;;;10.68;65.03;100007.23;1798939;80;21033;-76
2023/10/07 05:08:22;;;;;;;8.68;3.08;;;;;;;10.70;65.02;100006.49;1799305;80;21001;-76
2023/10/07 05:10:53;;;;;;;11.03;3.67;;;;;;;10.73;65.03;100001.97;1799196;80;21068;-76
2023/10/07 05:13:24;;;;;;;7.40;3.42;;;;;;;10.76;65.03;100001.55;1799311;80;21029;-76
2023/10/07 05:15:52;;;;;;;9.13;3.45;;;;;;;10.78;65.01;99989.85;1799157;80;21469;-75
2023/10/07 05:18:21;;;;;;;8.88;3.33;;;;;;;10.81;65.06;99987.22;1799268;80;21029;-74
2023/10/07 05:20:51;;;;;;;10.32;3.45;;;;;;;10.83;65.14;99974.15;1799291;80;21084;-73
2023/10/07 05:23:21;;;;;;;11.22;3.80;;;;;;;10.88;65.15;99974.89;1799026;80;21074;-75
2023/10/07 05:25:50;;;;;;;7.78;3.27;;;;;;;10.90;65.20;99969.52;1799059;80;21488;-75
2023/10/07 05:28:21;;;;;;;9.33;3.65;;;;;;;10.94;65.23;99965.30;1799182;78;20994;-74
2023/10/07 05:30:51;;;;;;;7.17;3.30;;;;;;;10.98;65.23;99970.67;1799365;80;21002;-75
2023/10/07 05:33:25;;;;;;;9.63;3.55;;;;;;;11.04;65.26;99971.20;1799208;80;21037;-74
2023/10/07 05:36:16;;;;;;;7.40;3.47;;;;;;;11.09;65.28;99952.25;1799155;80;21482;-75
2023/10/07 05:38:45;;;;;;;6.62;3.40;;;;;;;11.14;65.23;99954.35;1799285;80;21056;-76
2023/10/07 05:41:15;;;;;;;12.95;3.70;;;;;;;11.17;65.64;99938.84;1799307;80;21029;-75
2023/10/07 05:43:48;;;;;;;7.37;3.10;;;;;;;11.20;66.00;99926.61;1799132;80;21453;-76
2023/10/07 05:46:19;;;;;;;8.93;3.92;;;;;;;11.24;66.23;99921.02;1799232;80;21499;-75
2023/10/07 05:48:48;;;;;;;8.98;4.15;;;;;;;11.25;66.64;99911.20;1799018;80;21065;-75
2023/10/07 05:51:17;;;;;;;10.15;4.30;;;;;;;11.27;66.79;99907.72;1799188;80;21061;-76
2023/10/07 05:53:49;;;;;;;10.53;5.37;;;;;;;11.29;66.76;99901.48;1799115;80;21069;-76
2023/10/07 05:56:19;;;;;;;7.33;4.05;;;;;;;11.33;66.84;99890.40;1799257;80;21005;-74
2023/10/07 05:58:48;;;;;;;10.68;4.00;;;;;;;11.35;66.90;99882.80;1799228;80;21061;-74
2023/10/07 06:01:18;;;;;;;9.55;4.05;;;;;;;11.37;67.44;99882.05;1798204;78;21057;-74
2023/10/07 06:03:47;;;;;;;10.28;3.92;;;;;;;11.39;67.76;99890.06;1784674;79;21077;-73
2023/10/07 06:06:16;;;;;;;11.55;4.95;;;;;;;11.44;68.15;99876.02;1784849;80;21061;-74
2023/10/07 06:08:45;;;;;;;16.10;5.40;;;;;;;11.46;68.73;99868.94;1784837;80;21006;-75
2023/10/07 06:11:15;;;;;;;14.23;6.00;;;;;;;11.48;69.30;99876.95;1784681;80;20990;-73
2023/10/07 06:13:44;;;;;;;10.58;5.30;;;;;;;11.47;69.77;99870.63;1784692;80;21081;-72
2023/10/07 06:16:14;;;;;;;9.93;4.47;;;;;;;11.49;70.28;99858.91;1784701;79;21022;-73
2023/10/07 06:18:44;;;;;;;10.30;5.15;;;;;;;11.48;70.60;99870.94;1784556;80;21109;-73
2023/10/07 06:21:27;;;;;;;10.55;4.85;;;;;;;11.46;70.91;99856.59;1784624;80;21062;-75
2023/10/07 06:23:53;;;;;;;11.18;4.10;;;;;;;11.44;71.58;99849.95;1784016;80;21038;-74
2023/10/07 06:26:22;;;;;;;11.30;3.40;;;;;;;11.44;72.00;99837.61;1784654;80;21026;-75
2023/10/07 06:28:51;;;;;;;6.08;3.83;;;;;;;11.44;72.23;99832.66;1784666;80;20986;-76
2023/10/07 06:31:28;;;;;;;12.73;4.50;;;;;;;11.47;72.51;99825.36;1784519;80;20998;-75
2023/10/07 06:34:15;;;;;;;8.23;4.83;;;;;;;11.51;72.83;99829.88;1784593;80;21026;-77
2023/10/07 06:36:24;;;;;;;10.45;5.15;;;;;;;11.53;73.23;99829.14;1776578;80;21018;-77
2023/10/07 06:38:54;;;;;;;10.05;4.40;;;;;;;11.53;73.49;99829.98;1784583;80;21002;-77
2023/10/07 06:41:23;;;;;;;9.48;4.40;;;;;;;11.53;73.73;99831.34;1784549;79;21034;-77
2023/10/07 06:43:51;;;;;;;12.30;4.60;;;;;;;11.51;74.28;99823.02;1784597;80;21026;-76
2023/10/07 06:46:20;;;;;;;7.35;3.60;;;;;;;11.46;74.67;99827.80;1784763;80;21600;-76
2023/10/07 06:48:49;;;;;;;7.45;3.80;;;;;;;11.45;75.18;99819.25;1784734;80;21077;-76
2023/10/07 06:51:17;;;;;;;9.30;3.90;;;;;;;11.42;75.58;99820.53;1754883;79;21070;-78
2023/10/07 06:53:46;;;;;;;8.48;4.10;;;;;;;11.43;75.98;99824.11;1784744;80;21547;-77
2023/10/07 06:56:21;;;;;;;14.13;4.62;;;;;;;11.43;76.40;99815.88;1784533;79;21093;-77
2023/10/07 06:58:54;;;;;;;11.30;4.83;;;;;;;11.46;76.74;99823.67;1784573;80;21010;-74
2023/10/07 07:01:35;;;;;;;10.98;5.65;;;;;;;11.48;77.15;99822.93;1784597;80;21022;-74
2023/10/07 07:03:55;;;;;;;12.40;5.97;;;;;;;11.50;77.45;99821.34;1781294;80;21054;-76
2023/10/07 07:06:34;;;;;;;11.88;5.95;;;;;;;11.51;77.84;99818.37;1782902;80;21045;-76
2023/10/07 07:08:54;;;;;;;13.13;5.55;;;;;;;11.50;78.04;99808.47;1781712;80;21049;-73
2023/10/07 07:11:25;;;;;;;11.75;7.10;;;;;;;11.50;78.32;99806.25;1782942;80;21506;-73
2023/10/07 07:13:53;;;;;;;12.53;6.10;;;;;;;11.48;78.82;99799.61;1783061;80;21058;-72
2023/10/07 07:16:24;;;;;;;10.15;5.28;;;;;;;11.50;79.23;99797.49;1782821;80;21443;-75
2023/10/07 07:18:56;;;;;;;14.87;6.50;;;;;;;11.52;79.70;99778.91;1782857;80;21073;-76
2023/10/07 07:23:59;;;;;;;11.57;6.42;;;;;;;11.54;80.14;99763.07;1782864;80;21049;-74
2023/10/07 07:26:30;;;;;;;10.75;5.97;;;;;;;11.54;80.31;99758.95;1782951;80;21061;-75
2023/10/07 07:29:04;;;;;;;15.85;5.97;;;;;;;11.54;80.60;99748.52;1782877;80;21054;-78
2023/10/07 07:31:34;;;;;;;14.07;6.33;;;;;;;11.52;80.87;99750.64;1783009;80;21022;-76
2023/10/07 07:34:18;;;;;;;14.10;6.22;;;;;;;11.50;81.21;99749.48;1782979;80;21528;-76
2023/10/07 07:36:42;;;;;;;12.80;6.65;;;;;;;11.49;81.60;99749.17;1781204;80;21054;-77
2023/10/07 07:39:17;;;;;;;14.78;6.60;;;;;;;11.48;81.82;99737.05;1783082;80;21029;-76
2023/10/07 07:42:15;;;;;;;15.98;7.45;;;;;;;11.45;82.26;99731.47;1782314;80;21073;-76
2023/10/07 07:44:11;;;;;;;11.80;6.25;;;;;;;11.42;82.68;99741.51;1778674;80;21053;-74
2023/10/07 07:46:54;;;;;;;15.38;6.60;;;;;;;11.41;83.25;99735.71;1782964;80;21014;-77
2023/10/07 07:49:28;;;;;;;11.28;6.35;;;;;;;11.39;83.65;99730.98;1793901;79;21049;-77
2023/10/07 07:51:55;;;;;;;15.90;7.20;;;;;;;11.35;83.96;99733.31;1814880;79;21474;-78
2023/10/07 07:54:24;;;;;;;14.28;8.10;;;;;;;11.33;84.24;99725.84;1805241;79;21045;-78
2023/10/07 07:56:54;;;;;;;14.10;7.67;;;;;;;11.33;84.68;99730.48;1799355;79;21099;-78
2023/10/07 07:59:24;;;;;;;14.43;8.08;;;;;;;11.34;85.09;99718.45;1783013;80;21054;-76
2023/10/07 08:02:02;;;;;;;13.85;8.28;;;;;;;11.32;85.51;99714.56;1792221;78;21013;-79
2023/10/07 08:04:46;;;;;;;16.95;9.73;;;;;;;11.32;85.89;99721.95;1819716;79;21042;-78
2023/10/07 08:07:27;;;;;;;16.65;10.68;;;;;;;11.28;86.55;99697.39;1820413;79;21426;-76
2023/10/07 08:10:03;;;;;;;19.60;9.90;;;;;;;11.26;87.09;99692.66;1820102;79;21081;-78
2023/10/07 08:12:36;;;;;;;16.07;10.28;;;;;;;11.24;87.61;99692.03;1820214;79;21489;-77
2023/10/07 08:17:48;;;;;;;24.02;15.20;;;;;;;11.20;88.63;99677.08;1795106;79;21026;-77
2023/10/07 08:20:13;;;;;;;18.55;11.28;;;;;;;11.19;89.00;99679.52;1819336;79;21073;-79
2023/10/07 08:22:45;;;;;;;19.98;10.63;;;;;;;11.17;89.52;99670.66;1820133;79;20986;-76
2023/10/07 08:25:26;;;;;;;20.35;13.18;;;;;;;11.17;90.00;99655.59;1820211;79;21025;-77
2023/10/07 08:27:55;;;;;;;19.80;13.20;;;;;;;11.20;90.45;99656.52;1805704;79;21094;-75
2023/10/07 08:30:37;;;;;;;18.52;9.50;;;;;;;11.22;90.86;99652.49;1787371;80;21022;-75
2023/10/07 08:32:48;;;;;;;20.23;10.80;;;;;;;11.23;91.15;99663.77;1784816;80;21446;-76
2023/10/07 08:35:18;;;;;;;14.85;8.80;;;;;;;11.27;91.43;99656.78;1797001;79;21438;-76
2023/10/07 08:37:47;;;;;;;15.72;8.50;;;;;;;11.28;91.71;99660.37;1805151;79;21050;-77
2023/10/07 08:40:26;;;;;;;14.18;7.95;;;;;;;11.27;92.02;99659.53;1788113;79;21037;-79
2023/10/07 08:43:00;;;;;;;14.60;8.23;;;;;;;11.26;92.32;99650.98;1791971;79;21058;-78
2023/10/07 08:45:28;;;;;;;21.42;9.00;;;;;;;11.27;92.64;99640.86;1820280;78;21069;-76
2023/10/07 08:48:15;;;;;;;26.17;11.68;;;;;;;11.26;92.88;99629.05;1820490;79;21045;-77
2023/10/07 08:51:10;;;;;;;19.35;11.60;;;;;;;11.28;93.06;99621.45;1820692;79;21459;-76
2023/10/07 08:53:15;;;;;;;18.02;12.50;;;;;;;11.27;93.28;99619.77;1812394;79;21516;-74
2023/10/07 08:55:43;;;;;;;15.55;9.75;;;;;;;11.26;93.53;99626.31;1820252;78;21348;-76
2023/10/07 08:58:14;;;;;;;17.65;10.20;;;;;;;11.27;93.75;99607.95;1793442;79;21532;-79
2023/10/07 09:00:45;;;;;;;30.60;15.90;;;;;;;11.28;94.00;99606.36;1820478;79;21041;-75
2023/10/07 09:03:16;;;;;;;15.68;9.28;;;;;;;11.30;94.10;99604.77;1787516;78;21533;-77
2023/10/07 09:05:48;;;;;;;15.95;9.28;;;;;;;11.31;94.21;99592.20;1784430;80;21057;-74
2023/10/07 09:08:15;;;;;;;16.35;9.23;;;;;;;11.34;94.41;99585.44;1784297;77;21424;-74
2023/10/07 09:10:45;;;;;;;17.57;9.38;;;;;;;11.38;94.58;99599.86;1784585;80;21043;-74
2023/10/07 09:14:01;;;;;;;19.23;9.43;;;;;;;11.41;94.73;99584.32;1784506;79;21094;-70
2023/10/07 09:15:53;;;;;;;18.32;9.48;;;;;;;11.45;94.82;99592.95;1770936;79;21008;-73
2023/10/07 09:18:17;;;;;;;14.38;9.23;;;;;;;11.49;94.95;99585.95;1783644;79;21036;-73
2023/10/07 09:20:50;;;;;;;17.98;9.33;;;;;;;11.53;94.96;99578.11;1784541;80;21074;-72
2023/10/07 09:23:19;;;;;;;17.62;9.63;;;;;;;11.55;94.98;99579.56;1784444;79;21051;-74
2023/10/07 09:25:51;;;;;;;19.92;9.93;;;;;;;11.60;94.88;99578.89;1784646;80;21079;-74
2023/10/07 09:28:31;;;;;;;17.05;10.68;;;;;;;11.61;94.93;99562.20;1784463;79;21035;-74
2023/10/07 09:31:05;;;;;;;19.32;11.22;;;;;;;11.66;95.04;99555.51;1766243;80;21050;-74
2023/10/07 09:33:35;;;;;;;17.48;11.03;;;;;;;11.72;95.13;99555.17;1784332;80;21063;-73
2023/10/07 09:38:48;;;;;;;16.77;9.48;;;;;;;11.84;95.11;99548.44;1784772;79;20995;-75
2023/10/07 09:41:23;;;;;;;15.40;9.18;;;;;;;11.90;95.15;99537.92;1784355;79;21051;-75
2023/10/07 09:43:56;;;;;;;19.35;9.65;;;;;;;11.97;95.10;99531.83;1784392;79;21491;-74
2023/10/07 09:46:35;;;;;;;21.10;12.40;;;;;;;12.05;94.93;99538.39;1784410;79;21110;-73
2023/10/07 09:49:02;;;;;;;19.87;11.00;;;;;;;12.11;94.79;99537.47;1783160;80;21418;-76
2023/10/07 09:51:34;;;;;;;19.25;9.95;;;;;;;12.18;94.64;99532.73;1784430;80;21500;-76
2023/10/07 09:54:28;;;;;;;16.90;8.60;;;;;;;12.23;94.37;99536.17;1741273;80;21085;-72
2023/10/07 09:57:20;;;;;;;15.72;9.30;;;;;;;12.27;94.00;99517.62;1784302;79;21035;-75
2023/10/07 10:03:28;;;;;;;16.40;8.75;;;;;;;12.34;93.44;99505.19;1806383;79;21007;-74
2023/10/07 10:06:25;;;;;;;17.30;9.43;;;;;;;12.38;93.31;99497.66;1741476;82;21028;-75
2023/10/07 10:08:59;;;;;;;17.77;8.93;;;;;;;12.44;93.15;99486.27;1741216;82;21055;-75
2023/10/07 10:16:52;;;;;;;15.65;8.93;;;;;;;12.61;91.73;99452.11;1741454;82;21487;-78
2023/10/07 10:19:44;;;;;;;18.40;9.55;;;;;;;12.65;91.61;99452.78;1741377;82;21529;-76
2023/10/07 10:22:10;;;;;;;17.80;9.00;;;;;;;12.72;91.76;99440.31;1738889;82;21531;-76
2023/10/07 10:24:44;;;;;;;15.20;8.33;;;;;;;12.79;91.43;99431.42;1741360;82;21075;-73
2023/10/07 10:27:13;;;;;;;14.78;8.65;;;;;;;12.86;91.18;99426.66;1741264;82;21067;-73
2023/10/07 10:30:10;;;;;;;16.12;7.80;;;;;;;12.93;91.00;99421.05;1741409;82;21031;-75
2023/10/07 10:32:30;;;;;;;15.03;8.53;;;;;;;13.01;90.63;99418.81;1739308;82;21067;-75
2023/10/07 10:35:00;;;;;;;12.65;7.00;;;;;;;13.08;90.38;99406.86;1741350;82;21059;-76
2023/10/07 10:37:37;;;;;;;11.97;6.62;;;;;;;13.15;89.78;99405.67;1741474;82;21071;-74
2023/10/07 10:40:12;;;;;;;12.50;7.45;;;;;;;13.24;89.21;99402.06;1740422;82;21480;-73
2023/10/07 10:42:43;;;;;;;13.18;7.12;;;;;;;13.33;89.03;99397.33;1741252;82;21098;-74
2023/10/07 10:45:29;;;;;;;12.35;7.08;;;;;;;13.43;88.52;99400.84;1741191;82;21024;-73
2023/10/07 10:48:01;;;;;;;11.95;6.72;;;;;;;13.51;87.98;99402.39;1741498;82;21143;-76
2023/10/07 10:50:32;;;;;;;10.03;6.20;;;;;;;13.60;87.46;99378.92;1741404;82;21057;-74
2023/10/07 10:53:00;;;;;;;10.13;6.03;;;;;;;13.69;86.00;99380.80;1741133;82;21024;-74
2023/10/07 10:55:35;;;;;;;10.15;5.87;;;;;;;13.78;85.23;99372.45;1741205;82;21051;-74
2023/10/07 10:58:17;;;;;;;10.58;6.28;;;;;;;13.86;85.25;99377.58;1741583;82;21389;-75
2023/10/07 11:00:54;;;;;;;13.40;5.58;;;;;;;13.92;84.67;99369.17;1738655;82;21561;-74
2023/10/07 11:03:23;;;;;;;10.55;5.85;;;;;;;13.99;83.86;99371.78;1720914;83;21042;-75
2023/10/07 11:05:53;;;;;;;10.88;5.25;;;;;;;14.08;83.21;99368.94;1761412;80;21502;-76
2023/10/07 11:08:24;;;;;;;12.80;5.55;;;;;;;14.16;82.49;99376.80;1731269;83;21131;-75
2023/10/07 11:10:55;;;;;;;7.80;5.22;;;;;;;14.21;82.23;99365.88;1761343;81;21525;-74
2023/10/07 11:13:24;;;;;;;6.15;4.22;;;;;;;14.28;81.75;99377.58;1731202;83;21038;-74
2023/10/07 11:16:04;;;;;;;9.50;4.47;;;;;;;14.35;81.30;99360.93;1761332;81;21054;-71
2023/10/07 11:18:31;;;;;;;10.28;4.62;;;;;;;14.42;80.48;99359.40;1759966;81;21002;-72
2023/10/07 11:21:02;;;;;;;7.37;4.42;;;;;;;14.51;79.83;99347.75;1729733;83;21045;-74
2023/10/07 11:23:32;;;;;;;8.75;4.72;;;;;;;14.59;78.84;99347.34;1759831;81;21046;-73
2023/10/07 11:26:03;;;;;;;8.15;4.20;;;;;;;14.68;78.42;99346.37;1729584;83;21059;-73
2023/10/07 11:28:33;;;;;;;11.40;4.10;;;;;;;14.76;77.86;99346.50;1731018;82;21015;-73
2023/10/07 11:31:02;;;;;;;12.28;4.20;;;;;;;14.83;76.85;99354.06;1760033;81;21058;-71
2023/10/07 11:33:31;;;;;;;10.85;3.52;;;;;;;14.90;76.87;99345.08;1729584;83;21014;-73
2023/10/07 11:36:02;;;;;;;12.55;4.40;;;;;;;14.97;76.06;99347.15;1761423;81;21078;-72
2023/10/07 11:38:31;;;;;;;10.35;3.95;;;;;;;15.05;74.72;99345.89;1760093;81;21046;-72
2023/10/07 11:41:00;;;;;;;8.65;3.37;;;;;;;15.12;75.28;99342.41;1729460;83;21454;-72
2023/10/07 11:43:29;;;;;;;7.62;3.37;;;;;;;15.17;74.84;99339.18;1761398;81;21121;-72
2023/10/07 11:45:59;;;;;;;9.30;3.62;;;;;;;15.22;74.07;99335.12;1731348;83;21050;-72
2023/10/07 11:48:30;;;;;;;6.90;3.05;;;;;;;15.30;71.78;99354.54;1761331;81;21073;-72
2023/10/07 11:50:58;;;;;;;6.95;3.30;;;;;;;15.39;71.89;99345.28;1731163;83;20995;-72
2023/10/07 11:53:26;;;;;;;9.90;3.40;;;;;;;15.43;71.35;99343.68;1761273;81;21070;-72
2023/10/07 11:55:57;;;;;;;12.55;3.30;;;;;;;15.48;71.74;99352.03;1731266;83;21450;-73
2023/10/07 11:58:25;;;;;;;6.72;2.55;;;;;;;15.49;71.73;99355.91;1761471;81;21042;-73
2023/10/07 12:00:55;;;;;;;5.33;2.80;;;;;;;15.53;71.92;99353.48;1731145;81;21078;-74
2023/10/07 12:03:25;;;;;;;5.30;2.70;;;;;;;15.55;71.80;99361.80;1792339;80;21454;-72
2023/10/07 12:05:54;;;;;;;6.47;2.40;;;;;;;15.57;72.29;99380.03;1761417;81;21107;-73
2023/10/07 12:08:23;;;;;;;8.78;2.72;;;;;;;15.56;72.98;99358.48;1766020;80;21046;-74
2023/10/07 12:10:52;;;;;;;5.47;2.65;;;;;;;15.52;73.23;99384.94;1761442;81;21042;-74
2023/10/07 12:13:21;;;;;;;8.40;2.50;;;;;;;15.45;74.62;99369.10;1792616;80;21505;-72
2023/10/07 12:15:53;;;;;;;7.15;2.62;;;;;;;15.38;75.59;99356.86;1761321;81;21039;-74
2023/10/07 12:18:25;;;;;;;8.60;3.75;;;;;;;15.30;76.80;99363.36;1790528;80;20986;-74
2023/10/07 12:21:00;;;;;;;7.85;2.85;;;;;;;15.21;77.55;99353.30;1761336;81;21074;-75
2023/10/07 12:23:29;;;;;;;5.03;2.83;;;;;;;15.16;78.49;99360.96;1792425;80;21544;-73
2023/10/07 12:25:58;;;;;;;8.93;3.33;;;;;;;15.09;79.43;99355.33;1761254;81;21447;-73
2023/10/07 12:28:26;;;;;;;8.68;3.02;;;;;;;15.01;80.15;99352.45;1792828;80;21031;-72
2023/10/07 12:30:56;;;;;;;8.55;2.90;;;;;;;14.94;80.81;99361.41;1761245;81;21475;-72
2023/10/07 12:33:27;;;;;;;7.92;3.10;;;;;;;14.90;81.60;99378.17;1792745;80;21058;-72
2023/10/07 12:35:57;;;;;;;8.25;2.58;;;;;;;14.85;81.93;99359.63;1756895;81;21094;-72
2023/10/07 12:38:26;;;;;;;8.88;3.60;;;;;;;14.83;82.38;99361.80;1755372;82;21042;-73
2023/10/07 12:40:55;;;;;;;5.95;2.72;;;;;;;14.80;82.79;99362.30;1755461;82;20999;-73
2023/10/07 12:43:25;;;;;;;4.60;2.58;;;;;;;14.77;83.10;99372.45;1755236;82;21533;-73
2023/10/07 12:45:54;;;;;;;7.50;2.55;;;;;;;14.75;83.28;99353.11;1755421;82;21062;-73
2023/10/07 12:48:23;;;;;;;4.80;2.50;;;;;;;14.72;83.17;99364.09;1755525;82;21070;-73
2023/10/07 12:50:51;;;;;;;3.50;2.15;;;;;;;14.72;83.22;99354.98;1755397;82;21447;-73
2023/10/07 12:53:20;;;;;;;9.43;2.98;;;;;;;14.71;83.18;99367.94;1755537;82;21055;-74
2023/10/07 12:55:50;;;;;;;8.33;2.90;;;;;;;14.72;83.29;99363.25;1755428;82;21007;-74
2023/10/07 12:58:19;;;;;;;9.68;2.62;;;;;;;14.73;83.50;99357.49;1755379;82;21475;-73